Karen-l — WDD7770 — position and weather

sailwx.info

Track history (hours):
 
Tides and Currents Weather Stations Pressure Air Temp Water Temp Dewpoint Dewpoint Depression Visibility Wind Speed Wind Dir Waves Ship Positions

Karen-l

Owner: Karen L inc, barnegat light, NJ. More information available from US FCC via Universal Licensing System and Coast Guard Vessel Documentation Center.

Last reported at 2018-Jan-12 07:28 UTC. Time now 2018-Feb-22 06:45 UTC.
Position N 39°45' W 074°07'.
Warning: this ship's position is 40 days out of date.

Length 20 m.

Type: Fishing. MMSI: 367191080.

Date/timePositionNaut miles runAvg speedWind from/ knotsBaromVisibWave heightAir tempDewpointWater temp
2018-Jan-12 07:28N 39°45' W 074°07'1 3.2
2018-Jan-12 07:00N 39°46' W 074°05'4 7.4
2018-Jan-12 06:28N 39°46' W 074°00'4 0.2
2018-Jan-11 12:23N 39°46' W 074°05'1 1.1
2018-Jan-11 11:17N 39°45' W 074°07'0 0.0
2018-Jan-11 10:56N 39°45' W 074°07'0 0.0
2018-Jan-11 10:26N 39°45' W 074°07'0 0.0
2018-Jan-11 09:47N 39°45' W 074°07'0 0.0
2018-Jan-11 09:26N 39°45' W 074°07'0 0.0
2018-Jan-11 08:26N 39°45' W 074°07'0 0.0
2018-Jan-11 07:59N 39°45' W 074°07'0 0.2
2018-Jan-11 07:25N 39°45' W 074°07'3 6.1
2018-Jan-11 07:00N 39°46' W 074°04'4 8.5
2018-Jan-11 06:30N 39°47' W 073°58'  
Track history (hours):
 
Tides and Currents Weather Stations Pressure Air Temp Water Temp Dewpoint Dewpoint Depression Visibility Wind Speed Wind Dir Waves Ship Positions

Karen-l

Owner: Karen L inc, barnegat light, NJ. More information available from US FCC via Universal Licensing System and Coast Guard Vessel Documentation Center.

Last reported at 2018-Jan-12 07:28 UTC. Time now 2018-Feb-22 06:45 UTC.
Position N 39°45' W 074°07'.
Warning: this ship's position is 40 days out of date.

Length 20 m.

Type: Fishing. MMSI: 367191080.

Date/timePositionNaut miles runAvg speedWind from/ knotsBaromVisibWave heightAir tempDewpointWater temp
2018-Jan-12 07:28N 39°45' W 074°07'1 3.2
2018-Jan-12 07:00N 39°46' W 074°05'4 7.4
2018-Jan-12 06:28N 39°46' W 074°00'4 0.2
2018-Jan-11 12:23N 39°46' W 074°05'1 1.1
2018-Jan-11 11:17N 39°45' W 074°07'0 0.0
2018-Jan-11 10:56N 39°45' W 074°07'0 0.0
2018-Jan-11 10:26N 39°45' W 074°07'0 0.0
2018-Jan-11 09:47N 39°45' W 074°07'0 0.0
2018-Jan-11 09:26N 39°45' W 074°07'0 0.0
2018-Jan-11 08:26N 39°45' W 074°07'0 0.0
2018-Jan-11 07:59N 39°45' W 074°07'0 0.2
2018-Jan-11 07:25N 39°45' W 074°07'3 6.1
2018-Jan-11 07:00N 39°46' W 074°04'4 8.5
2018-Jan-11 06:30N 39°47' W 073°58'  

Dump ship's entire track history